Time,TemperatureF,DewpointF,PressureIn,WindDirection,WindDirectionDegrees,WindSpeedMPH,WindSpeedGustMPH,Humidity,HourlyPrecipIn,Conditions,Clouds,dailyrainin,SoftwareType,DateUTC
2013-11-02 00:13:00,47.4,41.0,29.71,West,267,7.0,11.0,79,0.00,,,0.00,weatherlink.com 1.10,2013-11-02 04:13:00,
2013-11-02 00:28:00,47.0,41.0,29.71,West,275,6.0,10.0,80,0.00,,,0.00,weatherlink.com 1.10,2013-11-02 04:28:00,
2013-11-02 00:43:00,47.1,41.0,29.71,WNW,289,7.0,9.0,79,0.00,,,0.00,weatherlink.com 1.10,2013-11-02 04:43:00,
2013-11-02 00:58:00,46.8,41.0,29.70,West,278,6.0,10.0,80,0.00,,,0.00,weatherlink.com 1.10,2013-11-02 04:58:00,
2013-11-02 01:13:00,46.4,41.0,29.71,West,281,9.0,9.0,81,0.00,,,0.00,weatherlink.com 1.10,2013-11-02 05:13:00,
2013-11-02 01:28:00,46.4,41.0,29.71,West,263,5.0,10.0,80,0.00,,,0.00,weatherlink.com 1.10,2013-11-02 05:28:00,
2013-11-02 01:43:00,46.1,41.0,29.70,WNW,284,7.0,9.0,81,0.00,,,0.00,weatherlink.com 1.10,2013-11-02 05:43:00,
2013-11-02 01:58:00,45.9,41.0,29.70,WNW,287,6.0,9.0,82,0.00,,,0.00,weatherlink.com 1.10,2013-11-02 05:58:00,
2013-11-02 02:13:00,45.7,40.0,29.71,West,277,4.0,8.0,81,0.00,,,0.00,weatherlink.com 1.10,2013-11-02 06:13:00,
2013-11-02 02:28:00,45.4,40.0,29.71,West,281,4.0,6.0,81,0.00,,,0.00,weatherlink.com 1.10,2013-11-02 06:28:00,
2013-11-02 02:43:00,45.4,39.0,29.71,West,264,5.0,10.0,78,0.00,,,0.00,weatherlink.com 1.10,2013-11-02 06:43:00,
2013-11-02 02:58:00,46.2,39.0,29.71,West,262,2.0,10.0,76,0.00,,,0.00,weatherlink.com 1.10,2013-11-02 06:58:00,
2013-11-02 03:13:00,46.5,39.0,29.71,WSW,254,5.0,12.0,74,0.00,,,0.00,weatherlink.com 1.10,2013-11-02 07:13:00,
2013-11-02 03:28:00,46.9,39.0,29.71,WNW,284,8.0,13.0,74,0.00,,,0.00,weatherlink.com 1.10,2013-11-02 07:28:00,
2013-11-02 03:43:00,46.9,39.0,29.71,West,261,9.0,12.0,75,0.00,,,0.00,weatherlink.com 1.10,2013-11-02 07:43:00,
2013-11-02 03:58:00,46.2,40.0,29.71,WNW,288,8.0,9.0,78,0.00,,,0.00,weatherlink.com 1.10,2013-11-02 07:58:00,
2013-11-02 04:31:00,44.8,40.0,29.72,West,275,8.0,12.0,83,0.00,,,0.00,weatherlink.com 1.10,2013-11-02 08:31:00,
2013-11-02 04:44:00,44.1,40.0,29.72,WNW,294,9.0,11.0,85,0.00,,,0.00,weatherlink.com 1.10,2013-11-02 08:44:00,
2013-11-02 04:59:00,43.7,40.0,29.72,West,265,7.0,12.0,87,0.00,,,0.00,weatherlink.com 1.10,2013-11-02 08:59:00,
2013-11-02 05:14:00,43.5,40.0,29.73,West,275,7.0,10.0,87,0.00,,,0.00,weatherlink.com 1.10,2013-11-02 09:14:00,
2013-11-02 05:29:00,43.4,40.0,29.73,West,273,6.0,11.0,88,0.00,,,0.00,weatherlink.com 1.10,2013-11-02 09:29:00,
2013-11-02 05:44:00,43.2,40.0,29.73,West,274,6.0,10.0,88,0.00,,,0.00,weatherlink.com 1.10,2013-11-02 09:44:00,
2013-11-02 05:59:00,43.4,40.0,29.73,WNW,282,5.0,10.0,88,0.00,,,0.00,weatherlink.com 1.10,2013-11-02 09:59:00,
2013-11-02 06:14:00,43.4,40.0,29.74,West,275,5.0,9.0,89,0.00,,,0.00,weatherlink.com 1.10,2013-11-02 10:14:00,
2013-11-02 06:29:00,43.4,40.0,29.74,WNW,286,6.0,8.0,88,0.00,,,0.00,weatherlink.com 1.10,2013-11-02 10:29:00,
2013-11-02 06:44:00,43.4,40.0,29.74,West,276,4.0,7.0,88,0.00,,,0.00,weatherlink.com 1.10,2013-11-02 10:44:00,
2013-11-02 06:59:00,43.3,40.0,29.75,West,281,5.0,8.0,88,0.00,,,0.00,weatherlink.com 1.10,2013-11-02 10:59:00,
2013-11-02 07:14:00,42.8,40.0,29.75,West,275,4.0,7.0,89,0.00,,,0.00,weatherlink.com 1.10,2013-11-02 11:14:00,
2013-11-02 07:29:00,42.7,40.0,29.75,NNW,342,4.0,8.0,89,0.00,,,0.00,weatherlink.com 1.10,2013-11-02 11:29:00,
2013-11-02 07:44:00,42.8,40.0,29.75,WNW,294,3.0,6.0,89,0.00,,,0.00,weatherlink.com 1.10,2013-11-02 11:44:00,
2013-11-02 07:59:00,42.6,40.0,29.76,North,360,4.0,9.0,89,0.00,,,0.00,weatherlink.com 1.10,2013-11-02 11:59:00,
2013-11-02 08:14:00,42.7,40.0,29.77,West,263,3.0,11.0,90,0.00,,,0.00,weatherlink.com 1.10,2013-11-02 12:14:00,
2013-11-02 08:29:00,42.6,40.0,29.78,West,271,2.0,7.0,89,0.00,,,0.00,weatherlink.com 1.10,2013-11-02 12:29:00,
2013-11-02 08:44:00,42.6,40.0,29.78,West,275,2.0,5.0,89,0.00,,,0.00,weatherlink.com 1.10,2013-11-02 12:44:00,
2013-11-02 08:59:00,42.8,40.0,29.77,WNW,282,1.0,4.0,89,0.00,,,0.00,weatherlink.com 1.10,2013-11-02 12:59:00,
2013-11-02 09:14:00,43.1,40.0,29.78,WNW,297,2.0,4.0,89,0.00,,,0.00,weatherlink.com 1.10,2013-11-02 13:14:00,
2013-11-02 09:29:00,43.5,40.0,29.79,WNW,297,2.0,3.0,88,0.00,,,0.00,weatherlink.com 1.10,2013-11-02 13:29:00,
2013-11-02 09:44:00,43.6,40.0,29.79,WNW,282,5.0,6.0,87,0.00,,,0.00,weatherlink.com 1.10,2013-11-02 13:44:00,
2013-11-02 09:59:00,43.6,41.0,29.80,West,262,4.0,8.0,89,0.00,,,0.00,weatherlink.com 1.10,2013-11-02 13:59:00,
2013-11-02 10:14:00,43.9,41.0,29.80,West,279,4.0,9.0,88,0.00,,,0.00,weatherlink.com 1.10,2013-11-02 14:14:00,
2013-11-02 10:29:00,44.7,41.0,29.80,WSW,253,6.0,9.0,87,0.00,,,0.00,weatherlink.com 1.10,2013-11-02 14:29:00,
2013-11-02 10:44:00,45.1,41.0,29.80,West,265,6.0,7.0,85,0.00,,,0.00,weatherlink.com 1.10,2013-11-02 14:44:00,
2013-11-02 10:59:00,45.3,41.0,29.80,WNW,283,5.0,8.0,85,0.00,,,0.00,weatherlink.com 1.10,2013-11-02 14:59:00,
2013-11-02 11:14:00,45.4,41.0,29.80,West,278,5.0,9.0,85,0.00,,,0.00,weatherlink.com 1.10,2013-11-02 15:14:00,
2013-11-02 11:29:00,46.5,42.0,29.80,West,264,6.0,10.0,83,0.00,,,0.00,weatherlink.com 1.10,2013-11-02 15:29:00,
2013-11-02 11:44:00,46.2,41.0,29.80,West,278,8.0,9.0,82,0.00,,,0.00,weatherlink.com 1.10,2013-11-02 15:44:00,
2013-11-02 11:59:00,46.3,41.0,29.81,West,277,7.0,11.0,83,0.00,,,0.00,weatherlink.com 1.10,2013-11-02 15:59:00,
2013-11-02 12:14:00,47.3,42.0,29.81,West,259,8.0,12.0,81,0.00,,,0.00,weatherlink.com 1.10,2013-11-02 16:14:00,
2013-11-02 12:29:00,47.0,41.0,29.81,West,273,9.0,12.0,81,0.00,,,0.00,weatherlink.com 1.10,2013-11-02 16:29:00,
2013-11-02 12:44:00,46.9,41.0,29.81,West,281,10.0,14.0,80,0.00,,,0.00,weatherlink.com 1.10,2013-11-02 16:44:00,
2013-11-02 12:59:00,45.7,41.0,29.80,West,262,7.0,14.0,83,0.00,,,0.00,weatherlink.com 1.10,2013-11-02 16:59:00,
2013-11-02 13:14:00,46.7,41.0,29.80,West,259,4.0,12.0,81,0.00,,,0.00,weatherlink.com 1.10,2013-11-02 17:14:00,
2013-11-02 13:29:00,49.0,41.0,29.80,West,275,10.0,14.0,75,0.00,,,0.00,weatherlink.com 1.10,2013-11-02 17:29:00,
2013-11-02 13:44:00,47.2,40.0,29.79,West,271,7.0,10.0,77,0.00,,,0.00,weatherlink.com 1.10,2013-11-02 17:44:00,
2013-11-02 13:59:00,48.2,41.0,29.80,WNW,284,8.0,15.0,75,0.00,,,0.00,weatherlink.com 1.10,2013-11-02 17:59:00,
2013-11-02 14:14:00,46.0,41.0,29.79,West,273,9.0,16.0,84,0.00,,,0.00,weatherlink.com 1.10,2013-11-02 18:14:00,
2013-11-02 14:29:00,42.0,39.0,29.80,WNW,283,8.0,16.0,88,0.00,,,0.00,weatherlink.com 1.10,2013-11-02 18:29:00,
2013-11-02 14:44:00,41.4,39.0,29.80,West,269,8.0,14.0,92,0.00,,,0.00,weatherlink.com 1.10,2013-11-02 18:44:00,
2013-11-02 14:59:00,42.8,41.0,29.80,West,264,8.0,12.0,93,0.00,,,0.00,weatherlink.com 1.10,2013-11-02 18:59:00,
2013-11-02 15:14:00,44.8,42.0,29.80,WNW,286,9.0,11.0,88,0.00,,,0.00,weatherlink.com 1.10,2013-11-02 19:14:00,
2013-11-02 15:29:00,42.3,39.0,29.80,WNW,286,12.0,15.0,89,0.00,,,0.00,weatherlink.com 1.10,2013-11-02 19:29:00,
2013-11-02 15:45:00,40.7,39.0,29.81,West,271,6.0,10.0,92,0.00,,,0.00,weatherlink.com 1.10,2013-11-02 19:45:00,
2013-11-02 16:00:00,40.5,38.0,29.81,West,279,8.0,9.0,89,0.00,,,0.00,weatherlink.com 1.10,2013-11-02 20:00:00,
2013-11-02 16:15:00,42.2,39.0,29.82,WNW,289,9.0,11.0,87,0.00,,,0.00,weatherlink.com 1.10,2013-11-02 20:15:00,
2013-11-02 16:30:00,40.5,37.0,29.83,NNW,338,5.0,16.0,88,0.00,,,0.00,weatherlink.com 1.10,2013-11-02 20:30:00,
2013-11-02 16:45:00,40.7,39.0,29.84,WNW,284,1.0,9.0,94,0.00,,,0.00,weatherlink.com 1.10,2013-11-02 20:45:00,
2013-11-02 17:00:00,40.6,38.0,29.84,North,9,0.0,7.0,89,0.00,,,0.00,weatherlink.com 1.10,2013-11-02 21:00:00,
2013-11-02 17:15:00,41.1,39.0,29.85,WNW,285,3.0,4.0,91,0.00,,,0.00,weatherlink.com 1.10,2013-11-02 21:15:00,
2013-11-02 17:30:00,40.4,39.0,29.86,WNW,284,1.0,9.0,93,0.00,,,0.00,weatherlink.com 1.10,2013-11-02 21:30:00,
2013-11-02 17:45:00,39.9,37.0,29.86,West,259,5.0,7.0,89,0.00,,,0.00,weatherlink.com 1.10,2013-11-02 21:45:00,
2013-11-02 18:00:00,40.6,37.0,29.87,West,273,3.0,6.0,88,0.00,,,0.00,weatherlink.com 1.10,2013-11-02 22:00:00,
2013-11-02 18:15:00,40.4,37.0,29.87,West,279,2.0,5.0,86,0.00,,,0.00,weatherlink.com 1.10,2013-11-02 22:15:00,
2013-11-02 18:30:00,40.2,36.0,29.88,West,259,1.0,7.0,85,0.00,,,0.00,weatherlink.com 1.10,2013-11-02 22:30:00,
2013-11-02 18:45:00,39.8,36.0,29.88,West,277,7.0,8.0,86,0.00,,,0.00,weatherlink.com 1.10,2013-11-02 22:45:00,
2013-11-02 19:00:00,40.4,36.0,29.89,WNW,293,8.0,12.0,85,0.00,,,0.00,weatherlink.com 1.10,2013-11-02 23:00:00,
2013-11-02 19:15:00,40.3,36.0,29.90,NW,312,11.0,12.0,84,0.00,,,0.00,weatherlink.com 1.10,2013-11-02 23:15:00,
2013-11-02 19:30:00,40.4,37.0,29.91,WNW,300,8.0,10.0,86,0.00,,,0.00,weatherlink.com 1.10,2013-11-02 23:30:00,
2013-11-02 19:45:00,40.4,37.0,29.92,West,281,7.0,10.0,86,0.00,,,0.00,weatherlink.com 1.10,2013-11-02 23:45:00,
2013-11-02 20:00:00,40.0,37.0,29.92,West,276,8.0,11.0,87,0.00,,,0.00,weatherlink.com 1.10,2013-11-03 00:00:00,
2013-11-02 20:15:00,39.9,36.0,29.93,NW,306,6.0,10.0,87,0.00,,,0.00,weatherlink.com 1.10,2013-11-03 00:15:00,
2013-11-02 20:30:00,39.8,36.0,29.94,WNW,285,9.0,10.0,87,0.00,,,0.00,weatherlink.com 1.10,2013-11-03 00:30:00,
2013-11-02 20:45:00,39.8,36.0,29.95,West,264,9.0,12.0,87,0.00,,,0.00,weatherlink.com 1.10,2013-11-03 00:45:00,
2013-11-02 21:00:00,39.5,36.0,29.95,West,280,9.0,11.0,88,0.00,,,0.00,weatherlink.com 1.10,2013-11-03 01:00:00,
2013-11-02 21:15:00,38.9,36.0,29.96,WNW,283,9.0,11.0,90,0.00,,,0.00,weatherlink.com 1.10,2013-11-03 01:15:00,
2013-11-02 21:30:00,38.2,36.0,29.96,WNW,283,11.0,11.0,92,0.00,,,0.00,weatherlink.com 1.10,2013-11-03 01:30:00,
2013-11-02 21:45:00,38.0,36.0,29.96,West,269,9.0,12.0,93,0.00,,,0.00,weatherlink.com 1.10,2013-11-03 01:45:00,
2013-11-02 22:00:00,37.9,36.0,29.97,West,279,10.0,14.0,93,0.00,,,0.00,weatherlink.com 1.10,2013-11-03 02:00:00,
2013-11-02 22:15:00,37.8,36.0,29.97,West,276,8.0,14.0,93,0.00,,,0.00,weatherlink.com 1.10,2013-11-03 02:15:00,
2013-11-02 22:30:00,37.8,36.0,29.98,West,263,9.0,13.0,93,0.00,,,0.00,weatherlink.com 1.10,2013-11-03 02:30:00,
2013-11-02 22:45:00,37.8,36.0,29.99,WNW,285,8.0,12.0,94,0.00,,,0.00,weatherlink.com 1.10,2013-11-03 02:45:00,
2013-11-02 23:00:00,37.7,36.0,30.00,WNW,294,8.0,12.0,94,0.00,,,0.00,weatherlink.com 1.10,2013-11-03 03:00:00,
2013-11-02 23:16:00,37.7,36.0,30.01,West,270,7.0,11.0,94,0.00,,,0.00,weatherlink.com 1.10,2013-11-03 03:16:00,
2013-11-02 23:31:00,37.7,36.0,30.02,NNW,333,6.0,12.0,95,0.00,,,0.00,weatherlink.com 1.10,2013-11-03 03:31:00,
2013-11-02 23:46:00,37.5,36.0,30.02,WSW,247,8.0,10.0,95,0.00,,,0.00,weatherlink.com 1.10,2013-11-03 03:46:00,